createdAt,value
2023-01-11T00:00:53.767Z,50.81
2023-01-11T00:01:56.897Z,50.87
2023-01-11T00:03:02.428Z,50.77
2023-01-11T00:04:05.380Z,50.77
2023-01-11T00:05:08.984Z,50.85
2023-01-11T00:06:12.050Z,50.87
2023-01-11T00:07:14.871Z,50.87
2023-01-11T00:08:18.744Z,50.91
2023-01-11T00:09:22.125Z,50.90
2023-01-11T00:10:25.148Z,50.86
2023-01-11T00:11:28.093Z,50.76
2023-01-11T00:12:31.373Z,50.74
2023-01-11T00:13:34.530Z,50.85
2023-01-11T00:14:37.499Z,50.87
2023-01-11T00:15:40.603Z,50.84
2023-01-11T00:16:43.763Z,50.77
2023-01-11T00:17:46.796Z,50.76
2023-01-11T00:18:49.889Z,50.93
2023-01-11T00:19:52.944Z,50.77
2023-01-11T00:20:56.092Z,50.82
2023-01-11T00:21:59.118Z,50.86
2023-01-11T00:23:02.185Z,50.99
2023-01-11T00:24:05.755Z,50.97
2023-01-11T00:25:09.294Z,50.95
2023-01-11T00:26:13.407Z,50.91
2023-01-11T00:27:16.408Z,50.83
2023-01-11T00:28:19.763Z,50.85
2023-01-11T00:29:22.909Z,50.95
2023-01-11T00:30:25.939Z,50.82
2023-01-11T00:31:29.150Z,50.95
2023-01-11T00:32:32.219Z,50.96
2023-01-11T00:33:35.177Z,50.88
2023-01-11T00:34:38.125Z,50.85
2023-01-11T00:35:41.036Z,50.99
2023-01-11T00:36:44.073Z,51.00
2023-01-11T00:37:46.983Z,50.90
2023-01-11T00:38:56.116Z,51.00
2023-01-11T00:39:59.108Z,51.00
2023-01-11T00:41:04.101Z,51.02
2023-01-11T00:42:28.139Z,51.04
2023-01-11T00:43:49.637Z,51.06
2023-01-11T00:45:11.266Z,50.97
2023-01-11T00:46:32.688Z,51.16
2023-01-11T00:47:54.069Z,51.06
2023-01-11T00:48:57.010Z,51.21
2023-01-11T00:49:59.946Z,51.08
2023-01-11T00:51:03.130Z,51.12
2023-01-11T00:52:08.453Z,51.32
2023-01-11T00:53:11.611Z,51.19
2023-01-11T00:54:14.643Z,51.19
2023-01-11T00:55:17.613Z,51.30
2023-01-11T00:56:20.640Z,51.21
2023-01-11T00:57:23.839Z,51.31
2023-01-11T00:58:26.755Z,51.29
2023-01-11T00:59:29.689Z,51.20
2023-01-11T01:00:32.755Z,51.31
2023-01-11T01:01:35.878Z,51.22
2023-01-11T01:02:38.879Z,51.38
2023-01-11T01:03:41.912Z,51.27
2023-01-11T01:04:45.602Z,51.42
2023-01-11T01:05:48.673Z,51.43
2023-01-11T01:06:51.887Z,51.40
2023-01-11T01:07:54.959Z,51.38
2023-01-11T01:08:58.116Z,51.26
2023-01-11T01:10:01.282Z,51.28
2023-01-11T01:11:04.310Z,51.29
2023-01-11T01:12:08.681Z,51.31
2023-01-11T01:13:29.791Z,51.48
2023-01-11T01:14:33.481Z,51.41
2023-01-11T01:15:36.483Z,51.53
2023-01-11T01:16:39.521Z,51.50
2023-01-11T01:17:42.468Z,51.35
2023-01-11T01:18:45.457Z,51.32
2023-01-11T01:19:48.498Z,51.33
2023-01-11T01:20:51.658Z,51.39
2023-01-11T01:21:56.533Z,51.51
2023-01-11T01:22:59.767Z,51.55
2023-01-11T01:24:03.028Z,51.59
2023-01-11T01:25:06.171Z,51.45
2023-01-11T01:26:09.417Z,51.56
2023-01-11T01:27:14.376Z,51.55
2023-01-11T01:28:18.361Z,51.40
2023-01-11T01:29:21.558Z,51.35
2023-01-11T01:30:24.551Z,51.49
2023-01-11T01:31:27.836Z,51.39
2023-01-11T01:32:30.841Z,51.51
2023-01-11T01:33:34.195Z,51.41
2023-01-11T01:34:37.356Z,51.49
2023-01-11T01:35:40.295Z,51.45
2023-01-11T01:36:43.468Z,51.40
2023-01-11T01:37:46.539Z,51.44
2023-01-11T01:38:49.496Z,51.54
2023-01-11T01:39:52.551Z,51.45
2023-01-11T01:40:56.426Z,51.61
2023-01-11T01:41:59.794Z,51.61
2023-01-11T01:43:02.758Z,51.48
2023-01-11T01:44:25.531Z,51.58
2023-01-11T01:45:28.605Z,51.48
2023-01-11T01:46:33.610Z,51.50
2023-01-11T01:47:40.165Z,51.63
2023-01-11T01:48:46.326Z,51.54
2023-01-11T01:49:49.691Z,51.67
2023-01-11T01:50:56.301Z,51.55
2023-01-11T01:52:00.159Z,51.53
2023-01-11T01:53:06.769Z,51.53
2023-01-11T01:54:13.395Z,51.62
2023-01-11T01:55:22.751Z,51.50
2023-01-11T01:56:32.316Z,51.55
2023-01-11T01:57:38.868Z,51.58
2023-01-11T01:58:45.539Z,51.60
2023-01-11T01:59:52.149Z,51.62
2023-01-11T02:00:55.490Z,51.60
2023-01-11T02:02:00.610Z,51.72
2023-01-11T02:03:03.883Z,51.67
2023-01-11T02:04:19.359Z,51.56
2023-01-11T02:05:22.409Z,51.57
2023-01-11T02:06:25.377Z,51.70
2023-01-11T02:07:34.037Z,51.60
2023-01-11T02:08:40.511Z,51.73
2023-01-11T02:09:52.973Z,51.71
2023-01-11T02:10:56.239Z,51.70
2023-01-11T02:12:00.326Z,51.76
2023-01-11T02:13:09.799Z,51.79
2023-01-11T02:14:16.223Z,51.74
2023-01-11T02:15:22.084Z,51.91
2023-01-11T02:16:25.385Z,51.90
2023-01-11T02:17:28.458Z,51.79
2023-01-11T02:18:31.485Z,51.90
2023-01-11T02:20:08.285Z,51.87
2023-01-11T02:21:17.430Z,51.75
2023-01-11T02:22:32.709Z,51.88
2023-01-11T02:24:00.164Z,51.78
2023-01-11T02:25:09.384Z,51.80
2023-01-11T02:26:32.327Z,51.96
2023-01-11T02:27:48.068Z,51.87
2023-01-11T02:29:06.142Z,51.93
2023-01-11T02:30:21.600Z,51.86
2023-01-11T02:31:33.908Z,51.96
2023-01-11T02:32:45.743Z,51.98
2023-01-11T02:33:58.136Z,51.96
2023-01-11T02:35:10.420Z,51.87
2023-01-11T02:36:16.910Z,51.71
2023-01-11T02:37:38.602Z,51.87
2023-01-11T02:39:03.133Z,51.91
2023-01-11T02:40:27.649Z,51.89
2023-01-11T02:41:36.125Z,51.75
2023-01-11T02:43:13.250Z,51.81
2023-01-11T02:44:38.222Z,51.92
2023-01-11T02:45:47.444Z,51.84
2023-01-11T02:46:53.862Z,51.67
2023-01-11T02:48:03.378Z,51.65
2023-01-11T02:49:36.953Z,51.68
2023-01-11T02:50:49.224Z,51.71
2023-01-11T02:51:58.473Z,51.66
2023-01-11T02:53:07.664Z,51.63
2023-01-11T02:54:12.330Z,51.75
2023-01-11T02:55:18.511Z,51.65
2023-01-11T02:56:28.146Z,51.65
2023-01-11T02:57:33.743Z,51.62
2023-01-11T02:58:40.180Z,51.71
2023-01-11T02:59:45.231Z,51.57
2023-01-11T03:00:48.897Z,51.54
2023-01-11T03:01:54.994Z,51.52
2023-01-11T03:03:15.745Z,51.49
2023-01-11T03:04:31.807Z,51.53
2023-01-11T03:05:38.248Z,51.35
2023-01-11T03:06:41.124Z,51.50
2023-01-11T03:09:13.745Z,51.56
2023-01-11T03:10:38.058Z,51.42
2023-01-11T03:12:20.921Z,51.42
2023-01-11T03:13:42.533Z,51.45
2023-01-11T03:14:52.083Z,51.52
2023-01-11T03:16:08.021Z,51.61
2023-01-11T03:17:26.736Z,51.47
2023-01-11T03:18:33.210Z,51.58
2023-01-11T03:19:48.765Z,51.50
2023-01-11T03:21:07.338Z,51.55
2023-01-11T03:22:13.875Z,51.56
2023-01-11T03:23:23.393Z,51.55
2023-01-11T03:24:42.299Z,51.66
2023-01-11T03:26:16.153Z,51.53
2023-01-11T03:27:31.850Z,51.62
2023-01-11T03:28:41.406Z,51.57
2023-01-11T03:30:05.665Z,51.49
2023-01-11T03:31:24.373Z,51.44
2023-01-11T03:32:36.760Z,51.42
2023-01-11T03:33:52.288Z,51.41
2023-01-11T03:35:02.004Z,51.40
2023-01-11T03:36:17.094Z,51.50
2023-01-11T03:38:40.781Z,51.44
2023-01-11T03:39:47.183Z,51.32
2023-01-11T03:40:53.787Z,51.41
2023-01-11T03:42:00.238Z,51.39
2023-01-11T03:43:12.372Z,51.30
2023-01-11T03:44:18.222Z,51.42
2023-01-11T03:45:21.286Z,51.40
2023-01-11T03:46:28.070Z,51.40
2023-01-11T03:47:33.603Z,51.24
2023-01-11T03:48:40.228Z,51.19
2023-01-11T03:49:58.150Z,51.16
2023-01-11T03:51:03.723Z,51.24
2023-01-11T03:52:11.561Z,51.24
2023-01-11T03:53:17.819Z,51.15
2023-01-11T03:54:23.738Z,51.10
2023-01-11T03:55:29.989Z,51.02
2023-01-11T03:57:06.391Z,50.95
2023-01-11T03:58:09.585Z,50.99
2023-01-11T03:59:12.744Z,50.99
2023-01-11T04:00:16.235Z,51.00
2023-01-11T04:01:19.519Z,51.10
2023-01-11T04:02:25.908Z,51.11
2023-01-11T04:03:29.061Z,50.97
2023-01-11T04:04:32.048Z,51.07
2023-01-11T04:05:36.290Z,51.06
2023-01-11T04:06:39.395Z,50.88
2023-01-11T04:07:42.291Z,50.97
2023-01-11T04:08:45.223Z,50.85
2023-01-11T04:09:48.071Z,50.84
2023-01-11T04:10:51.085Z,50.79
2023-01-11T04:11:54.043Z,50.83
2023-01-11T04:12:56.959Z,50.88
2023-01-11T04:14:00.892Z,50.84
2023-01-11T04:15:04.989Z,50.92
2023-01-11T04:16:08.418Z,50.91
2023-01-11T04:17:11.468Z,50.84
2023-01-11T04:18:14.545Z,50.84
2023-01-11T04:19:17.568Z,50.73
2023-01-11T04:20:20.649Z,50.68
2023-01-11T04:21:23.653Z,50.80
2023-01-11T04:22:26.500Z,50.70
2023-01-11T04:23:30.297Z,50.78
2023-01-11T04:24:33.343Z,50.70
2023-01-11T04:25:36.299Z,50.52
2023-01-11T04:26:39.556Z,50.51
2023-01-11T04:27:42.606Z,50.46
2023-01-11T04:28:45.654Z,50.58
2023-01-11T04:29:48.612Z,50.59
2023-01-11T04:30:51.743Z,50.56
2023-01-11T04:31:54.938Z,50.45
2023-01-11T04:32:58.651Z,50.57
2023-01-11T04:34:01.909Z,50.47
2023-01-11T04:35:05.389Z,50.57
2023-01-11T04:36:10.934Z,50.57
2023-01-11T04:37:13.904Z,50.55
2023-01-11T04:38:16.965Z,50.56
2023-01-11T04:39:20.054Z,50.44
2023-01-11T04:40:23.999Z,50.52
2023-01-11T04:41:45.456Z,50.37
2023-01-11T04:42:48.529Z,50.42
2023-01-11T04:43:54.226Z,50.26
2023-01-11T04:44:57.295Z,50.39
2023-01-11T04:46:00.365Z,50.43
2023-01-11T04:47:03.386Z,50.44
2023-01-11T04:48:06.381Z,50.43
2023-01-11T04:49:09.422Z,50.45
2023-01-11T04:50:13.411Z,50.42
2023-01-11T04:51:16.629Z,50.32
2023-01-11T04:52:20.054Z,50.30
2023-01-11T04:53:23.100Z,50.25
2023-01-11T04:54:26.036Z,50.37
2023-01-11T04:55:29.085Z,50.30
2023-01-11T04:56:32.355Z,50.41
2023-01-11T04:57:35.477Z,50.30
2023-01-11T04:58:38.460Z,50.43
2023-01-11T04:59:41.562Z,50.40
2023-01-11T05:00:44.687Z,50.30
2023-01-11T05:01:47.846Z,50.40
2023-01-11T05:02:50.916Z,50.29
2023-01-11T05:03:54.777Z,50.41
2023-01-11T05:04:57.847Z,50.30
2023-01-11T05:06:01.481Z,50.44
2023-01-11T05:07:04.537Z,50.30
2023-01-11T05:08:07.672Z,50.39
2023-01-11T05:09:15.943Z,50.40
2023-01-11T05:10:20.863Z,50.37
2023-01-11T05:11:23.794Z,50.24
2023-01-11T05:12:26.713Z,50.27
2023-01-11T05:13:41.440Z,50.36
2023-01-11T05:14:44.525Z,50.26
2023-01-11T05:15:47.652Z,50.39
2023-01-11T05:16:50.640Z,50.39
2023-01-11T05:17:53.726Z,50.34
2023-01-11T05:18:58.643Z,50.45
2023-01-11T05:20:01.491Z,50.46
2023-01-11T05:21:05.902Z,50.44
2023-01-11T05:22:09.138Z,50.34
2023-01-11T05:23:12.075Z,50.38
2023-01-11T05:24:16.312Z,50.47
2023-01-11T05:25:19.279Z,50.35
2023-01-11T05:26:26.288Z,50.42
2023-01-11T05:27:29.573Z,50.43
2023-01-11T05:28:32.691Z,50.31
2023-01-11T05:29:35.774Z,50.41
2023-01-11T05:30:38.911Z,50.41
2023-01-11T05:31:42.105Z,50.28
2023-01-11T05:32:45.017Z,50.29
2023-01-11T05:33:48.177Z,50.39
2023-01-11T05:34:51.230Z,50.32
2023-01-11T05:35:59.563Z,50.38
2023-01-11T05:37:02.620Z,50.48
2023-01-11T05:38:05.538Z,50.47
2023-01-11T05:39:10.161Z,50.45
2023-01-11T05:40:13.333Z,50.35
2023-01-11T05:41:17.566Z,50.33
2023-01-11T05:42:21.985Z,50.49
2023-01-11T05:43:25.667Z,50.39
2023-01-11T05:44:46.875Z,50.49
2023-01-11T05:45:49.988Z,50.50
2023-01-11T05:46:53.005Z,50.37
2023-01-11T05:47:56.010Z,50.39
2023-01-11T05:48:59.217Z,50.42
2023-01-11T05:50:02.352Z,50.43
2023-01-11T05:51:05.380Z,50.52
2023-01-11T05:52:08.310Z,50.46
2023-01-11T05:53:11.218Z,50.59
2023-01-11T05:54:14.943Z,50.58
2023-01-11T05:55:17.884Z,50.44
2023-01-11T05:56:20.723Z,50.50
2023-01-11T05:57:23.650Z,50.59
2023-01-11T05:58:27.866Z,50.59
2023-01-11T05:59:32.177Z,50.57
2023-01-11T06:00:35.351Z,50.52
2023-01-11T06:01:38.368Z,50.53
2023-01-11T06:02:41.310Z,50.53
2023-01-11T06:03:44.787Z,50.52
2023-01-11T06:04:47.726Z,50.56
2023-01-11T06:05:51.603Z,50.71
2023-01-11T06:06:54.851Z,50.74
2023-01-11T06:07:57.904Z,50.63
2023-01-11T06:09:00.847Z,50.73
2023-01-11T06:10:04.224Z,50.61
2023-01-11T06:11:07.283Z,50.61
2023-01-11T06:12:10.611Z,50.60
2023-01-11T06:13:29.084Z,50.63
2023-01-11T06:14:32.160Z,50.76
2023-01-11T06:15:35.504Z,50.70
2023-01-11T06:16:38.573Z,50.70
2023-01-11T06:17:41.491Z,50.69
2023-01-11T06:18:46.876Z,50.82
2023-01-11T06:19:49.953Z,50.83
2023-01-11T06:20:54.733Z,50.71
2023-01-11T06:21:57.927Z,50.71
2023-01-11T06:23:00.995Z,50.71
2023-01-11T06:24:04.224Z,50.82
2023-01-11T06:25:07.598Z,50.81
2023-01-11T06:26:13.152Z,50.81
2023-01-11T06:27:17.557Z,50.64
2023-01-11T06:28:20.851Z,50.60
2023-01-11T06:29:23.830Z,50.62
2023-01-11T06:30:26.750Z,50.62
2023-01-11T06:31:29.695Z,50.69
2023-01-11T06:32:32.632Z,50.57
2023-01-11T06:33:36.276Z,50.69
2023-01-11T06:34:39.907Z,50.73
2023-01-11T06:35:43.720Z,50.72
2023-01-11T06:36:46.704Z,50.70
2023-01-11T06:37:49.619Z,50.68
2023-01-11T06:38:52.976Z,50.58
2023-01-11T06:39:55.918Z,50.71
2023-01-11T06:41:00.974Z,50.60
2023-01-11T06:42:04.112Z,50.67
2023-01-11T06:43:08.261Z,50.64
2023-01-11T06:44:11.211Z,50.51
2023-01-11T06:45:14.243Z,50.67
2023-01-11T06:46:18.316Z,50.60
2023-01-11T06:47:21.319Z,50.67
2023-01-11T06:48:25.044Z,50.62
2023-01-11T06:49:28.105Z,50.61
2023-01-11T06:50:31.549Z,50.63
2023-01-11T06:51:34.613Z,50.64
2023-01-11T06:52:37.627Z,50.67
2023-01-11T06:53:42.016Z,50.56
2023-01-11T06:54:44.939Z,50.60
2023-01-11T06:55:51.846Z,50.55
2023-01-11T06:56:54.799Z,50.57
2023-01-11T06:57:57.809Z,50.58
2023-01-11T06:59:00.855Z,50.53
2023-01-11T07:00:04.415Z,50.42
2023-01-11T07:01:07.685Z,50.34
2023-01-11T07:02:11.188Z,50.38
2023-01-11T07:03:14.118Z,50.46
2023-01-11T07:04:18.979Z,50.42
2023-01-11T07:05:22.122Z,50.31
2023-01-11T07:06:25.219Z,50.31
2023-01-11T07:07:28.195Z,50.34
2023-01-11T07:08:31.429Z,50.32
2023-01-11T07:09:34.281Z,50.42
2023-01-11T07:10:37.307Z,50.34
2023-01-11T07:11:40.363Z,50.41
2023-01-11T07:12:43.287Z,50.21
2023-01-11T07:13:46.231Z,50.28
2023-01-11T07:14:49.155Z,50.21
2023-01-11T07:15:53.439Z,50.15
2023-01-11T07:16:56.355Z,50.16
2023-01-11T07:18:00.291Z,50.12
2023-01-11T07:19:03.231Z,50.16
2023-01-11T07:20:07.597Z,50.18
2023-01-11T07:21:10.698Z,50.30
2023-01-11T07:22:15.419Z,50.17
2023-01-11T07:23:18.783Z,50.08
2023-01-11T07:24:23.726Z,50.04
2023-01-11T07:25:28.196Z,50.06
2023-01-11T07:26:32.554Z,50.13
2023-01-11T07:27:35.513Z,50.04
2023-01-11T07:28:38.564Z,50.01
2023-01-11T07:29:41.503Z,50.09
2023-01-11T07:30:57.631Z,50.08
2023-01-11T07:31:49.402Z,50.01
2023-01-11T07:32:52.415Z,50.02
2023-01-11T07:33:55.495Z,49.92
2023-01-11T07:34:58.476Z,49.93
2023-01-11T07:36:03.297Z,50.06
2023-01-11T07:37:08.257Z,49.90
2023-01-11T07:38:13.013Z,49.87
2023-01-11T07:39:15.954Z,49.92
2023-01-11T07:40:19.247Z,49.93
2023-01-11T07:41:40.874Z,49.92
2023-01-11T07:43:06.490Z,49.80
2023-01-11T07:44:10.048Z,49.82
2023-01-11T07:45:13.160Z,49.78
2023-01-11T07:46:16.352Z,49.86
2023-01-11T07:47:19.367Z,49.83
2023-01-11T07:48:27.511Z,49.80
2023-01-11T07:49:31.066Z,49.87
2023-01-11T07:50:34.153Z,49.92
2023-01-11T07:51:37.118Z,50.04
2023-01-11T07:52:48.189Z,50.02
2023-01-11T07:53:51.198Z,50.03
2023-01-11T07:55:12.126Z,49.94
2023-01-11T07:56:15.056Z,49.98
2023-01-11T07:57:18.110Z,49.81
2023-01-11T07:58:21.194Z,49.80
2023-01-11T07:59:24.336Z,49.92
2023-01-11T08:00:27.483Z,49.96
2023-01-11T08:01:30.327Z,49.92
2023-01-11T08:02:33.515Z,49.83
2023-01-11T08:03:36.749Z,49.77
2023-01-11T08:04:39.707Z,49.76
2023-01-11T08:05:42.779Z,49.77
2023-01-11T08:06:45.815Z,49.59
2023-01-11T08:07:49.082Z,49.67
2023-01-11T08:08:52.123Z,49.56
2023-01-11T08:09:55.075Z,49.53
2023-01-11T08:11:16.371Z,49.62
2023-01-11T08:12:37.881Z,49.58
2023-01-11T08:13:59.158Z,49.43
2023-01-11T08:15:02.223Z,49.46
2023-01-11T08:16:05.315Z,49.40
2023-01-11T08:17:11.463Z,49.27
2023-01-11T08:18:14.436Z,49.27
2023-01-11T08:19:17.437Z,49.25
2023-01-11T08:20:20.487Z,49.40
2023-01-11T08:21:23.625Z,49.29
2023-01-11T08:22:26.684Z,49.37
2023-01-11T08:23:30.749Z,49.38
2023-01-11T08:24:36.612Z,49.33
2023-01-11T08:25:39.923Z,49.35
2023-01-11T08:26:43.022Z,49.36
2023-01-11T08:27:45.935Z,49.31
2023-01-11T08:28:48.872Z,49.26
2023-01-11T08:29:51.719Z,49.24
2023-01-11T08:30:54.826Z,49.26
2023-01-11T08:31:58.811Z,49.35
2023-01-11T08:33:02.519Z,49.29
2023-01-11T08:34:05.650Z,49.27
2023-01-11T08:35:08.923Z,49.21
2023-01-11T08:36:12.780Z,49.30
2023-01-11T08:37:15.856Z,49.18
2023-01-11T08:38:18.980Z,49.18
2023-01-11T08:39:22.156Z,49.12
2023-01-11T08:40:25.074Z,49.01
2023-01-11T08:41:28.023Z,48.98
2023-01-11T08:42:32.057Z,48.94
2023-01-11T08:43:35.143Z,49.07
2023-01-11T08:44:38.062Z,48.96
2023-01-11T08:45:41.106Z,48.98
2023-01-11T08:46:44.041Z,49.04
2023-01-11T08:47:48.280Z,48.92
2023-01-11T08:48:53.042Z,48.93
2023-01-11T08:49:56.021Z,49.03
2023-01-11T08:50:59.351Z,49.01
2023-01-11T08:52:02.314Z,48.99
2023-01-11T08:53:05.275Z,48.82
2023-01-11T08:54:13.762Z,48.85
2023-01-11T08:55:16.890Z,48.84
2023-01-11T08:56:19.748Z,48.72
2023-01-11T08:57:22.814Z,48.85
2023-01-11T08:58:25.773Z,48.74
2023-01-11T08:59:28.741Z,48.73
2023-01-11T09:00:31.788Z,48.66
2023-01-11T09:01:34.808Z,48.68
2023-01-11T09:02:37.785Z,48.65
2023-01-11T09:03:40.665Z,48.80
2023-01-11T09:04:43.625Z,48.70
2023-01-11T09:05:46.686Z,48.80
2023-01-11T09:06:49.767Z,48.75
2023-01-11T09:07:56.087Z,48.80
2023-01-11T09:08:59.188Z,48.93
2023-01-11T09:10:02.165Z,48.88
2023-01-11T09:11:07.263Z,48.76
2023-01-11T09:12:10.259Z,48.71
2023-01-11T09:13:13.253Z,48.72
2023-01-11T09:14:16.223Z,48.73
2023-01-11T09:15:19.469Z,48.74
2023-01-11T09:16:22.562Z,48.88
2023-01-11T09:17:25.716Z,48.81
2023-01-11T09:18:28.923Z,48.78
2023-01-11T09:19:32.987Z,48.90
2023-01-11T09:20:35.971Z,48.79
2023-01-11T09:21:38.941Z,48.93
2023-01-11T09:22:52.801Z,48.86
2023-01-11T09:23:56.060Z,48.88
2023-01-11T09:25:00.144Z,48.99
2023-01-11T09:26:03.145Z,49.05
2023-01-11T09:27:06.265Z,49.06
2023-01-11T09:28:09.346Z,48.97
2023-01-11T09:29:13.190Z,49.07
2023-01-11T09:30:19.038Z,49.09
2023-01-11T09:31:22.109Z,49.11
2023-01-11T09:32:25.160Z,49.13
2023-01-11T09:33:28.209Z,49.03
2023-01-11T09:34:31.430Z,48.99
2023-01-11T09:35:35.201Z,49.05
2023-01-11T09:36:39.666Z,49.06
2023-01-11T09:37:50.834Z,49.09
2023-01-11T09:38:55.796Z,49.15
2023-01-11T09:39:59.484Z,49.13
2023-01-11T09:41:20.093Z,49.15
2023-01-11T09:42:34.391Z,49.12
2023-01-11T09:43:43.957Z,49.15
2023-01-11T09:44:53.605Z,49.12
2023-01-11T09:46:01.677Z,49.19
2023-01-11T09:47:20.452Z,49.19
2023-01-11T09:48:31.759Z,49.24
2023-01-11T09:49:41.379Z,49.37
2023-01-11T09:50:47.906Z,49.38
2023-01-11T09:51:51.702Z,49.33
2023-01-11T09:52:58.257Z,49.40
2023-01-11T09:54:04.422Z,49.43
2023-01-11T09:55:14.640Z,49.57
2023-01-11T09:56:28.009Z,49.45
2023-01-11T09:57:40.552Z,49.50
2023-01-11T09:59:05.869Z,49.52
2023-01-11T10:00:39.712Z,49.56
2023-01-11T10:03:34.890Z,49.64
2023-01-11T10:05:10.371Z,49.69
2023-01-11T10:06:22.977Z,49.73
2023-01-11T10:07:47.045Z,49.91
2023-01-11T10:18:28.168Z,50.23
2023-01-11T10:18:34.081Z,50.20
2023-01-11T10:18:50.038Z,50.44
2023-01-11T10:19:40.406Z,50.40
2023-01-11T10:20:45.943Z,50.48
2023-01-11T10:21:54.061Z,50.47
2023-01-11T10:23:04.501Z,50.57
2023-01-11T10:24:21.013Z,50.48
2023-01-11T10:25:26.675Z,50.56
2023-01-11T10:26:35.241Z,50.50
2023-01-11T10:27:40.704Z,50.59
2023-01-11T10:28:51.763Z,50.51
2023-01-11T10:30:06.039Z,50.64
2023-01-11T10:31:14.458Z,50.55
2023-01-11T10:32:41.921Z,50.65
2023-01-11T10:34:06.067Z,50.80
2023-01-11T10:35:43.001Z,50.79
2023-01-11T10:37:10.989Z,50.89
2023-01-11T10:38:48.112Z,51.06
2023-01-11T10:40:43.276Z,51.02
2023-01-11T10:43:13.332Z,51.33
2023-01-11T10:44:21.839Z,51.37
2023-01-11T10:45:28.418Z,51.42
2023-01-11T10:46:34.237Z,51.32
2023-01-11T10:47:40.986Z,51.33
2023-01-11T10:53:54.552Z,51.41
2023-01-11T10:54:59.426Z,51.58
2023-01-11T10:56:14.669Z,51.77
2023-01-11T10:58:52.933Z,51.95
2023-01-11T11:00:05.818Z,51.88
2023-01-11T11:01:33.908Z,52.04
2023-01-11T11:02:49.178Z,51.99
2023-01-11T11:03:55.680Z,52.08
2023-01-11T11:05:14.505Z,52.13
2023-01-11T11:06:26.810Z,52.17
2023-01-11T11:07:56.260Z,52.27
2023-01-11T11:09:20.705Z,52.19
2023-01-11T11:10:33.314Z,52.30
2023-01-11T11:11:40.022Z,52.34
2023-01-11T11:12:49.360Z,52.38
2023-01-11T11:14:01.855Z,52.30
2023-01-11T11:15:18.216Z,52.29
2023-01-11T11:16:27.826Z,52.33
2023-01-11T11:17:36.788Z,52.36
2023-01-11T11:18:44.838Z,52.42
2023-01-11T11:19:48.120Z,52.36
2023-01-11T11:20:51.427Z,52.49
2023-01-11T11:21:55.151Z,52.53
2023-01-11T11:22:58.582Z,52.55
2023-01-11T11:24:08.849Z,52.48
2023-01-11T11:25:33.105Z,52.51
2023-01-11T11:26:40.906Z,52.64
2023-01-11T11:27:52.744Z,52.59
2023-01-11T11:29:01.125Z,52.62
2023-01-11T11:30:04.547Z,52.63
2023-01-11T11:31:08.046Z,52.74
2023-01-11T11:32:14.661Z,52.64
2023-01-11T11:33:21.410Z,52.66
2023-01-11T11:34:27.282Z,52.80
2023-01-11T11:35:33.208Z,52.74
2023-01-11T11:36:44.036Z,52.72
2023-01-11T11:37:47.120Z,52.77
2023-01-11T11:39:11.613Z,52.89
2023-01-11T11:40:33.969Z,52.84
2023-01-11T11:41:52.442Z,52.99
2023-01-11T11:43:20.139Z,53.06
2023-01-11T11:44:25.829Z,53.10
2023-01-11T11:45:29.060Z,53.08
2023-01-11T11:46:32.200Z,53.13
2023-01-11T11:47:35.499Z,53.14
2023-01-11T11:48:38.474Z,53.31
2023-01-11T11:49:41.740Z,53.28
2023-01-11T11:50:46.039Z,53.40
2023-01-11T11:51:50.929Z,53.45
2023-01-11T11:53:03.396Z,53.36
2023-01-11T11:54:06.598Z,53.52
2023-01-11T11:55:11.556Z,53.53
2023-01-11T11:56:30.140Z,53.53
2023-01-11T11:57:36.787Z,53.56
2023-01-11T11:58:42.000Z,53.58
2023-01-11T11:59:48.247Z,53.58
2023-01-11T12:00:52.948Z,53.61
2023-01-11T12:01:59.530Z,53.52
2023-01-11T12:03:21.111Z,53.49
2023-01-11T12:04:39.893Z,53.60
2023-01-11T12:06:03.337Z,53.58
2023-01-11T12:07:19.114Z,53.61
2023-01-11T12:08:26.447Z,53.51
2023-01-11T12:09:33.117Z,53.64
2023-01-11T12:10:36.982Z,53.74
2023-01-11T12:11:41.681Z,53.76
2023-01-11T12:13:02.016Z,53.80
2023-01-11T12:15:33.521Z,53.94
2023-01-11T12:16:42.057Z,53.83
2023-01-11T12:17:45.195Z,53.85
2023-01-11T12:18:48.872Z,53.81
2023-01-11T12:19:51.721Z,53.93
2023-01-11T12:20:55.429Z,53.82
2023-01-11T12:23:29.636Z,53.75
2023-01-11T12:24:33.277Z,53.74
2023-01-11T12:25:57.661Z,53.77
2023-01-11T12:27:19.261Z,53.77
2023-01-11T12:28:54.466Z,53.78
2023-01-11T12:30:01.044Z,53.85
2023-01-11T12:32:57.816Z,54.00
2023-01-11T12:34:22.178Z,53.87
2023-01-11T12:36:03.393Z,53.88
2023-01-11T12:37:19.743Z,53.95
2023-01-11T12:38:32.241Z,53.93
2023-01-11T12:39:53.696Z,54.01
2023-01-11T12:41:12.519Z,54.03
2023-01-11T12:42:47.502Z,53.94
2023-01-11T12:44:05.601Z,53.94
2023-01-11T12:45:36.569Z,54.00
2023-01-11T12:46:49.358Z,54.05
2023-01-11T12:48:14.124Z,54.05
2023-01-11T12:49:26.403Z,54.17
2023-01-11T12:50:35.742Z,54.13
2023-01-11T12:51:59.038Z,54.13
2023-01-11T12:53:32.765Z,54.00
2023-01-11T12:54:57.887Z,54.00
2023-01-11T12:56:24.111Z,54.06
2023-01-11T12:57:33.382Z,53.98
2023-01-11T12:58:43.945Z,54.06
2023-01-11T13:00:16.306Z,54.07
2023-01-11T13:01:35.255Z,53.96
2023-01-11T13:03:16.507Z,53.97
2023-01-11T13:04:29.138Z,54.02
2023-01-11T13:05:50.882Z,53.96
2023-01-11T13:07:12.610Z,54.09
2023-01-11T13:08:22.080Z,53.99
2023-01-11T13:09:34.423Z,54.01
2023-01-11T13:10:55.966Z,54.05
2023-01-11T13:12:18.961Z,54.08
2023-01-11T13:13:28.367Z,54.15
2023-01-11T13:14:40.869Z,54.17
2023-01-11T13:15:53.565Z,54.22
2023-01-11T13:17:16.700Z,54.35
2023-01-11T13:18:35.053Z,54.22
2023-01-11T13:19:44.389Z,54.20
2023-01-11T13:21:02.177Z,54.26
2023-01-11T13:22:08.414Z,54.20
2023-01-11T13:23:15.145Z,54.27
2023-01-11T13:24:23.577Z,54.23
2023-01-11T13:25:33.022Z,54.34
2023-01-11T13:26:39.689Z,54.25
2023-01-11T13:27:43.459Z,54.22
2023-01-11T13:28:52.794Z,54.23
2023-01-11T13:29:58.952Z,54.33
2023-01-11T13:31:04.873Z,54.31
2023-01-11T13:32:29.490Z,54.22
2023-01-11T13:33:34.236Z,54.21
2023-01-11T13:34:43.615Z,54.23
2023-01-11T13:35:53.118Z,54.26
2023-01-11T13:37:08.919Z,54.29
2023-01-11T13:38:35.229Z,54.32
2023-01-11T13:39:41.954Z,54.37
2023-01-11T13:40:48.135Z,54.49
2023-01-11T13:41:54.976Z,54.37
2023-01-11T13:43:01.584Z,54.50
2023-01-11T13:44:13.865Z,54.42
2023-01-11T13:45:29.544Z,54.50
2023-01-11T13:46:44.835Z,54.55
2023-01-11T13:48:00.230Z,54.50
2023-01-11T13:49:16.036Z,54.51
2023-01-11T13:50:46.917Z,54.56
2023-01-11T13:51:53.445Z,54.47
2023-01-11T13:53:25.394Z,54.62
2023-01-11T13:54:51.480Z,54.66
2023-01-11T13:56:07.991Z,54.58
2023-01-11T13:57:17.656Z,54.70
2023-01-11T13:59:47.582Z,54.82
2023-01-11T14:01:09.656Z,54.73
2023-01-11T14:02:38.443Z,54.75
2023-01-11T14:03:54.353Z,54.80
2023-01-11T14:05:16.160Z,54.85
2023-01-11T14:06:44.029Z,54.99
2023-01-11T14:08:00.402Z,54.95
2023-01-11T14:09:12.741Z,55.00
2023-01-11T14:10:22.276Z,55.16
2023-01-11T14:11:45.593Z,55.09
2023-01-11T14:12:57.943Z,55.24
2023-01-11T14:14:33.123Z,55.21
2023-01-11T14:15:42.457Z,55.26
2023-01-11T14:17:00.699Z,55.41
2023-01-11T14:18:25.186Z,55.34
2023-01-11T14:19:40.595Z,55.39
2023-01-11T14:20:56.206Z,55.55
2023-01-11T14:22:21.771Z,55.48
2023-01-11T14:23:40.565Z,55.61
2023-01-11T14:24:47.212Z,55.67
2023-01-11T14:26:17.536Z,55.72
2023-01-11T14:27:40.437Z,55.67
2023-01-11T14:28:52.897Z,55.69
2023-01-11T14:30:02.389Z,55.79
2023-01-11T14:31:18.091Z,55.86
2023-01-11T17:37:58.385Z,67.05
2023-01-11T17:39:03.229Z,66.72
2023-01-11T17:40:10.335Z,66.66
2023-01-11T17:41:33.495Z,66.45
2023-01-11T17:42:55.012Z,66.50
2023-01-11T17:44:17.020Z,66.44
2023-01-11T17:45:23.483Z,66.31
2023-01-11T17:46:26.861Z,66.37
2023-01-11T17:47:30.676Z,66.18
2023-01-11T17:48:34.122Z,66.33
2023-01-11T17:49:38.088Z,66.32
2023-01-11T17:50:56.907Z,66.17
2023-01-11T17:52:18.115Z,66.08
2023-01-11T17:53:26.002Z,66.14
2023-01-11T17:54:29.553Z,65.97
2023-01-11T17:55:33.415Z,66.04
2023-01-11T17:56:38.683Z,65.86
2023-01-11T17:57:41.669Z,65.91
2023-01-11T17:58:44.590Z,65.86
2023-01-11T17:59:47.448Z,65.84
2023-01-11T18:01:09.247Z,65.75
2023-01-11T18:02:14.350Z,65.70
2023-01-11T18:03:18.045Z,65.66
2023-01-11T18:04:22.898Z,65.55
2023-01-11T18:05:28.375Z,65.46
2023-01-11T18:06:39.295Z,65.51
2023-01-11T18:07:43.381Z,65.34
2023-01-11T18:08:48.763Z,65.22
2023-01-11T18:09:55.454Z,65.18